sensor_id;sensor_type;location;lat;lon;timestamp;P1;durP1;ratioP1;P2;durP2;ratioP2
27893;SDS011;15240;50.812;4.792;2023-03-14T00:00:58;5.83;;;1.60;;
27893;SDS011;15240;50.812;4.792;2023-03-14T00:03:24;8.93;;;1.57;;
27893;SDS011;15240;50.812;4.792;2023-03-14T00:05:51;7.93;;;1.70;;
27893;SDS011;15240;50.812;4.792;2023-03-14T00:08:17;7.33;;;1.70;;
27893;SDS011;15240;50.812;4.792;2023-03-14T00:10:44;7.97;;;1.70;;
27893;SDS011;15240;50.812;4.792;2023-03-14T00:13:10;6.47;;;1.70;;
27893;SDS011;15240;50.812;4.792;2023-03-14T00:15:36;9.37;;;1.87;;
27893;SDS011;15240;50.812;4.792;2023-03-14T00:18:02;8.73;;;2.07;;
27893;SDS011;15240;50.812;4.792;2023-03-14T00:20:28;7.27;;;2.13;;
27893;SDS011;15240;50.812;4.792;2023-03-14T00:22:54;9.03;;;1.97;;
27893;SDS011;15240;50.812;4.792;2023-03-14T00:25:20;8.47;;;1.73;;
27893;SDS011;15240;50.812;4.792;2023-03-14T00:27:46;10.23;;;2.07;;
27893;SDS011;15240;50.812;4.792;2023-03-14T00:30:12;7.60;;;1.53;;
27893;SDS011;15240;50.812;4.792;2023-03-14T00:32:38;7.73;;;1.73;;
27893;SDS011;15240;50.812;4.792;2023-03-14T00:35:05;10.00;;;1.60;;
27893;SDS011;15240;50.812;4.792;2023-03-14T00:37:31;9.97;;;2.03;;
27893;SDS011;15240;50.812;4.792;2023-03-14T00:39:57;6.93;;;1.70;;
27893;SDS011;15240;50.812;4.792;2023-03-14T00:42:23;6.93;;;1.60;;
27893;SDS011;15240;50.812;4.792;2023-03-14T00:44:50;7.13;;;1.87;;
27893;SDS011;15240;50.812;4.792;2023-03-14T00:47:16;9.83;;;1.67;;
27893;SDS011;15240;50.812;4.792;2023-03-14T00:49:42;9.83;;;1.77;;
27893;SDS011;15240;50.812;4.792;2023-03-14T00:52:08;11.93;;;2.00;;
27893;SDS011;15240;50.812;4.792;2023-03-14T00:54:34;7.57;;;1.93;;
27893;SDS011;15240;50.812;4.792;2023-03-14T00:57:00;14.17;;;1.93;;
27893;SDS011;15240;50.812;4.792;2023-03-14T00:59:26;9.03;;;2.27;;
27893;SDS011;15240;50.812;4.792;2023-03-14T01:01:52;13.27;;;2.07;;
27893;SDS011;15240;50.812;4.792;2023-03-14T01:04:19;13.17;;;2.23;;
27893;SDS011;15240;50.812;4.792;2023-03-14T01:06:45;10.77;;;2.17;;
27893;SDS011;15240;50.812;4.792;2023-03-14T01:09:11;13.47;;;2.37;;
27893;SDS011;15240;50.812;4.792;2023-03-14T01:11:37;9.00;;;2.03;;
27893;SDS011;15240;50.812;4.792;2023-03-14T01:14:03;11.53;;;2.43;;
27893;SDS011;15240;50.812;4.792;2023-03-14T01:16:31;12.17;;;2.13;;
27893;SDS011;15240;50.812;4.792;2023-03-14T01:18:57;10.07;;;1.97;;
27893;SDS011;15240;50.812;4.792;2023-03-14T01:21:24;11.87;;;1.93;;
27893;SDS011;15240;50.812;4.792;2023-03-14T01:23:51;7.90;;;1.87;;
27893;SDS011;15240;50.812;4.792;2023-03-14T01:26:19;14.80;;;2.33;;
27893;SDS011;15240;50.812;4.792;2023-03-14T01:28:46;12.00;;;2.07;;
27893;SDS011;15240;50.812;4.792;2023-03-14T01:31:12;15.60;;;2.27;;
27893;SDS011;15240;50.812;4.792;2023-03-14T01:33:39;7.17;;;2.03;;
27893;SDS011;15240;50.812;4.792;2023-03-14T01:36:05;11.27;;;2.50;;
27893;SDS011;15240;50.812;4.792;2023-03-14T01:38:32;12.47;;;2.23;;
27893;SDS011;15240;50.812;4.792;2023-03-14T01:40:58;12.57;;;2.10;;
27893;SDS011;15240;50.812;4.792;2023-03-14T01:43:25;9.50;;;1.93;;
27893;SDS011;15240;50.812;4.792;2023-03-14T01:50:59;12.17;;;1.97;;
27893;SDS011;15240;50.812;4.792;2023-03-14T01:53:25;12.47;;;2.63;;
27893;SDS011;15240;50.812;4.792;2023-03-14T01:55:51;13.37;;;2.20;;
27893;SDS011;15240;50.812;4.792;2023-03-14T01:58:18;12.03;;;1.97;;
27893;SDS011;15240;50.812;4.792;2023-03-14T02:00:45;11.17;;;2.17;;
27893;SDS011;15240;50.812;4.792;2023-03-14T02:03:14;9.73;;;1.87;;
27893;SDS011;15240;50.812;4.792;2023-03-14T02:05:42;9.20;;;1.60;;
27893;SDS011;15240;50.812;4.792;2023-03-14T02:08:13;9.47;;;1.80;;
27893;SDS011;15240;50.812;4.792;2023-03-14T02:10:42;10.13;;;1.40;;
27893;SDS011;15240;50.812;4.792;2023-03-14T02:13:08;8.40;;;1.77;;
27893;SDS011;15240;50.812;4.792;2023-03-14T02:15:36;7.83;;;1.57;;
27893;SDS011;15240;50.812;4.792;2023-03-14T02:18:02;8.47;;;1.60;;
27893;SDS011;15240;50.812;4.792;2023-03-14T02:22:58;12.60;;;2.30;;
27893;SDS011;15240;50.812;4.792;2023-03-14T02:27:50;13.57;;;2.80;;
27893;SDS011;15240;50.812;4.792;2023-03-14T02:30:18;12.07;;;2.27;;
27893;SDS011;15240;50.812;4.792;2023-03-14T02:32:46;13.37;;;2.00;;
27893;SDS011;15240;50.812;4.792;2023-03-14T02:35:13;9.90;;;2.10;;
27893;SDS011;15240;50.812;4.792;2023-03-14T02:37:57;10.87;;;1.50;;
27893;SDS011;15240;50.812;4.792;2023-03-14T02:40:26;11.40;;;1.80;;
27893;SDS011;15240;50.812;4.792;2023-03-14T02:42:52;11.30;;;1.93;;
27893;SDS011;15240;50.812;4.792;2023-03-14T02:47:54;7.20;;;1.70;;
27893;SDS011;15240;50.812;4.792;2023-03-14T02:50:22;9.63;;;2.07;;
27893;SDS011;15240;50.812;4.792;2023-03-14T02:52:50;13.97;;;2.60;;
27893;SDS011;15240;50.812;4.792;2023-03-14T02:55:20;10.63;;;3.20;;
27893;SDS011;15240;50.812;4.792;2023-03-14T02:57:46;17.73;;;3.80;;
27893;SDS011;15240;50.812;4.792;2023-03-14T03:00:12;11.20;;;3.13;;
27893;SDS011;15240;50.812;4.792;2023-03-14T03:02:38;12.43;;;3.40;;
27893;SDS011;15240;50.812;4.792;2023-03-14T03:05:04;13.90;;;3.27;;
27893;SDS011;15240;50.812;4.792;2023-03-14T03:07:30;14.03;;;4.00;;
27893;SDS011;15240;50.812;4.792;2023-03-14T03:09:56;19.70;;;3.53;;
27893;SDS011;15240;50.812;4.792;2023-03-14T03:12:22;21.47;;;4.77;;
27893;SDS011;15240;50.812;4.792;2023-03-14T03:14:48;25.00;;;4.80;;
27893;SDS011;15240;50.812;4.792;2023-03-14T03:17:14;23.23;;;4.90;;
27893;SDS011;15240;50.812;4.792;2023-03-14T03:19:41;21.17;;;4.97;;
27893;SDS011;15240;50.812;4.792;2023-03-14T03:22:07;24.13;;;5.10;;
27893;SDS011;15240;50.812;4.792;2023-03-14T03:24:33;19.37;;;4.80;;
27893;SDS011;15240;50.812;4.792;2023-03-14T03:26:59;18.13;;;4.90;;
27893;SDS011;15240;50.812;4.792;2023-03-14T03:29:25;16.23;;;4.33;;
27893;SDS011;15240;50.812;4.792;2023-03-14T03:31:52;18.37;;;4.23;;
27893;SDS011;15240;50.812;4.792;2023-03-14T03:34:18;19.27;;;4.40;;
27893;SDS011;15240;50.812;4.792;2023-03-14T03:36:44;20.87;;;4.60;;
27893;SDS011;15240;50.812;4.792;2023-03-14T03:39:10;18.53;;;4.47;;
27893;SDS011;15240;50.812;4.792;2023-03-14T03:41:36;15.53;;;4.43;;
27893;SDS011;15240;50.812;4.792;2023-03-14T03:44:02;16.70;;;3.90;;
27893;SDS011;15240;50.812;4.792;2023-03-14T03:46:28;14.60;;;3.97;;
27893;SDS011;15240;50.812;4.792;2023-03-14T03:48:55;17.33;;;4.27;;
27893;SDS011;15240;50.812;4.792;2023-03-14T03:51:21;16.90;;;4.17;;
27893;SDS011;15240;50.812;4.792;2023-03-14T03:53:47;14.17;;;3.70;;
27893;SDS011;15240;50.812;4.792;2023-03-14T03:56:13;15.00;;;4.00;;
27893;SDS011;15240;50.812;4.792;2023-03-14T03:58:39;20.83;;;4.50;;
27893;SDS011;15240;50.812;4.792;2023-03-14T04:01:07;18.40;;;4.07;;
27893;SDS011;15240;50.812;4.792;2023-03-14T04:03:33;12.00;;;3.57;;
27893;SDS011;15240;50.812;4.792;2023-03-14T04:06:03;16.97;;;3.90;;
27893;SDS011;15240;50.812;4.792;2023-03-14T04:08:30;13.50;;;3.80;;
27893;SDS011;15240;50.812;4.792;2023-03-14T04:10:59;17.63;;;3.83;;
27893;SDS011;15240;50.812;4.792;2023-03-14T04:13:26;12.63;;;3.70;;
27893;SDS011;15240;50.812;4.792;2023-03-14T04:15:52;14.17;;;3.40;;
27893;SDS011;15240;50.812;4.792;2023-03-14T04:18:19;13.97;;;3.20;;
27893;SDS011;15240;50.812;4.792;2023-03-14T04:20:45;13.73;;;3.33;;
27893;SDS011;15240;50.812;4.792;2023-03-14T04:23:11;8.17;;;3.13;;
27893;SDS011;15240;50.812;4.792;2023-03-14T04:25:37;11.77;;;3.40;;
27893;SDS011;15240;50.812;4.792;2023-03-14T04:28:03;10.10;;;2.97;;
27893;SDS011;15240;50.812;4.792;2023-03-14T04:30:29;12.40;;;2.90;;
27893;SDS011;15240;50.812;4.792;2023-03-14T04:32:55;11.90;;;3.23;;
27893;SDS011;15240;50.812;4.792;2023-03-14T04:35:21;13.00;;;3.23;;
27893;SDS011;15240;50.812;4.792;2023-03-14T04:37:47;13.40;;;2.97;;
27893;SDS011;15240;50.812;4.792;2023-03-14T04:40:14;8.10;;;2.77;;
27893;SDS011;15240;50.812;4.792;2023-03-14T04:42:40;9.77;;;3.00;;
27893;SDS011;15240;50.812;4.792;2023-03-14T04:45:07;7.40;;;2.73;;
27893;SDS011;15240;50.812;4.792;2023-03-14T04:47:33;7.07;;;2.43;;
27893;SDS011;15240;50.812;4.792;2023-03-14T04:49:59;9.00;;;2.37;;
27893;SDS011;15240;50.812;4.792;2023-03-14T04:52:25;9.60;;;2.23;;
27893;SDS011;15240;50.812;4.792;2023-03-14T04:54:52;9.60;;;2.53;;
27893;SDS011;15240;50.812;4.792;2023-03-14T04:57:18;8.30;;;2.20;;
27893;SDS011;15240;50.812;4.792;2023-03-14T04:59:44;8.47;;;2.77;;
27893;SDS011;15240;50.812;4.792;2023-03-14T05:02:10;7.80;;;2.30;;
27893;SDS011;15240;50.812;4.792;2023-03-14T05:04:36;5.07;;;2.30;;
27893;SDS011;15240;50.812;4.792;2023-03-14T05:07:02;6.73;;;2.60;;
27893;SDS011;15240;50.812;4.792;2023-03-14T05:09:28;7.90;;;2.70;;
27893;SDS011;15240;50.812;4.792;2023-03-14T05:11:54;6.23;;;2.50;;
27893;SDS011;15240;50.812;4.792;2023-03-14T05:14:20;8.87;;;2.80;;
27893;SDS011;15240;50.812;4.792;2023-03-14T05:16:46;10.37;;;2.77;;
27893;SDS011;15240;50.812;4.792;2023-03-14T05:19:12;9.40;;;2.70;;
27893;SDS011;15240;50.812;4.792;2023-03-14T05:21:38;7.07;;;3.07;;
27893;SDS011;15240;50.812;4.792;2023-03-14T05:24:04;7.17;;;2.63;;
27893;SDS011;15240;50.812;4.792;2023-03-14T05:26:31;9.93;;;2.63;;
27893;SDS011;15240;50.812;4.792;2023-03-14T05:28:57;6.07;;;2.60;;
27893;SDS011;15240;50.812;4.792;2023-03-14T05:31:23;7.27;;;2.40;;
27893;SDS011;15240;50.812;4.792;2023-03-14T05:33:49;4.73;;;2.70;;
27893;SDS011;15240;50.812;4.792;2023-03-14T05:36:15;7.30;;;2.80;;
27893;SDS011;15240;50.812;4.792;2023-03-14T05:38:41;6.30;;;2.73;;
27893;SDS011;15240;50.812;4.792;2023-03-14T05:41:07;6.23;;;2.33;;
27893;SDS011;15240;50.812;4.792;2023-03-14T05:43:33;7.73;;;2.90;;
27893;SDS011;15240;50.812;4.792;2023-03-14T05:45:59;8.13;;;2.67;;
27893;SDS011;15240;50.812;4.792;2023-03-14T05:48:25;6.33;;;3.03;;
27893;SDS011;15240;50.812;4.792;2023-03-14T05:50:55;5.63;;;2.83;;
27893;SDS011;15240;50.812;4.792;2023-03-14T05:53:21;6.47;;;3.40;;
27893;SDS011;15240;50.812;4.792;2023-03-14T05:55:47;8.47;;;3.30;;
27893;SDS011;15240;50.812;4.792;2023-03-14T05:58:13;6.37;;;2.97;;
27893;SDS011;15240;50.812;4.792;2023-03-14T06:00:39;8.80;;;3.67;;
27893;SDS011;15240;50.812;4.792;2023-03-14T06:03:05;7.03;;;3.13;;
27893;SDS011;15240;50.812;4.792;2023-03-14T06:05:32;6.47;;;3.50;;
27893;SDS011;15240;50.812;4.792;2023-03-14T06:07:58;11.20;;;3.83;;
27893;SDS011;15240;50.812;4.792;2023-03-14T06:10:24;8.27;;;3.30;;
27893;SDS011;15240;50.812;4.792;2023-03-14T06:12:50;7.70;;;3.47;;
27893;SDS011;15240;50.812;4.792;2023-03-14T06:15:16;9.03;;;3.20;;
27893;SDS011;15240;50.812;4.792;2023-03-14T06:17:42;7.10;;;3.37;;
27893;SDS011;15240;50.812;4.792;2023-03-14T06:20:09;10.47;;;3.70;;
27893;SDS011;15240;50.812;4.792;2023-03-14T06:22:35;8.07;;;3.50;;
27893;SDS011;15240;50.812;4.792;2023-03-14T06:25:01;8.30;;;3.77;;
27893;SDS011;15240;50.812;4.792;2023-03-14T06:27:28;8.13;;;3.70;;
27893;SDS011;15240;50.812;4.792;2023-03-14T06:29:55;10.27;;;3.67;;
27893;SDS011;15240;50.812;4.792;2023-03-14T06:32:21;11.70;;;3.97;;
27893;SDS011;15240;50.812;4.792;2023-03-14T06:34:47;8.53;;;4.20;;
27893;SDS011;15240;50.812;4.792;2023-03-14T06:37:13;10.87;;;3.77;;
27893;SDS011;15240;50.812;4.792;2023-03-14T06:39:39;10.83;;;4.00;;
27893;SDS011;15240;50.812;4.792;2023-03-14T06:42:05;10.37;;;4.03;;
27893;SDS011;15240;50.812;4.792;2023-03-14T06:44:31;10.00;;;4.37;;
27893;SDS011;15240;50.812;4.792;2023-03-14T06:46:58;11.60;;;4.50;;
27893;SDS011;15240;50.812;4.792;2023-03-14T06:49:24;9.90;;;4.43;;
27893;SDS011;15240;50.812;4.792;2023-03-14T06:51:50;10.10;;;4.20;;
27893;SDS011;15240;50.812;4.792;2023-03-14T06:54:16;8.03;;;4.50;;
27893;SDS011;15240;50.812;4.792;2023-03-14T06:56:42;9.63;;;4.30;;
27893;SDS011;15240;50.812;4.792;2023-03-14T06:59:08;9.80;;;4.13;;
27893;SDS011;15240;50.812;4.792;2023-03-14T07:01:34;8.83;;;4.53;;
27893;SDS011;15240;50.812;4.792;2023-03-14T07:04:00;10.07;;;4.17;;
27893;SDS011;15240;50.812;4.792;2023-03-14T07:06:26;7.97;;;4.30;;
27893;SDS011;15240;50.812;4.792;2023-03-14T07:08:54;8.70;;;4.20;;
27893;SDS011;15240;50.812;4.792;2023-03-14T07:11:21;8.23;;;3.90;;
27893;SDS011;15240;50.812;4.792;2023-03-14T07:13:47;10.93;;;4.23;;
27893;SDS011;15240;50.812;4.792;2023-03-14T07:16:13;7.83;;;3.70;;
27893;SDS011;15240;50.812;4.792;2023-03-14T07:18:39;5.67;;;3.17;;
27893;SDS011;15240;50.812;4.792;2023-03-14T07:21:06;6.60;;;2.70;;
27893;SDS011;15240;50.812;4.792;2023-03-14T07:23:32;6.57;;;1.50;;
27893;SDS011;15240;50.812;4.792;2023-03-14T07:25:59;1.90;;;0.90;;
27893;SDS011;15240;50.812;4.792;2023-03-14T07:28:25;2.27;;;0.90;;
27893;SDS011;15240;50.812;4.792;2023-03-14T07:30:52;2.80;;;1.00;;
27893;SDS011;15240;50.812;4.792;2023-03-14T07:33:18;3.60;;;1.20;;
27893;SDS011;15240;50.812;4.792;2023-03-14T07:35:46;4.57;;;1.50;;
27893;SDS011;15240;50.812;4.792;2023-03-14T07:38:12;2.10;;;1.30;;
27893;SDS011;15240;50.812;4.792;2023-03-14T07:40:38;4.90;;;1.47;;
27893;SDS011;15240;50.812;4.792;2023-03-14T07:43:04;2.97;;;1.20;;
27893;SDS011;15240;50.812;4.792;2023-03-14T07:45:30;2.80;;;1.30;;
27893;SDS011;15240;50.812;4.792;2023-03-14T07:47:56;4.40;;;1.70;;
27893;SDS011;15240;50.812;4.792;2023-03-14T07:50:23;6.30;;;1.80;;
27893;SDS011;15240;50.812;4.792;2023-03-14T07:52:49;4.77;;;2.40;;
27893;SDS011;15240;50.812;4.792;2023-03-14T07:55:15;7.20;;;3.60;;
27893;SDS011;15240;50.812;4.792;2023-03-14T07:57:41;5.50;;;3.83;;
27893;SDS011;15240;50.812;4.792;2023-03-14T08:00:07;8.43;;;4.03;;
27893;SDS011;15240;50.812;4.792;2023-03-14T08:02:34;7.17;;;4.00;;
27893;SDS011;15240;50.812;4.792;2023-03-14T08:05:01;9.53;;;4.30;;
27893;SDS011;15240;50.812;4.792;2023-03-14T08:07:27;6.57;;;3.50;;
27893;SDS011;15240;50.812;4.792;2023-03-14T08:09:53;8.50;;;3.70;;
27893;SDS011;15240;50.812;4.792;2023-03-14T08:12:19;7.17;;;3.23;;
27893;SDS011;15240;50.812;4.792;2023-03-14T08:14:45;5.50;;;3.33;;
27893;SDS011;15240;50.812;4.792;2023-03-14T08:17:11;8.60;;;4.00;;
27893;SDS011;15240;50.812;4.792;2023-03-14T08:19:37;6.83;;;3.60;;
27893;SDS011;15240;50.812;4.792;2023-03-14T08:22:04;10.03;;;4.40;;
27893;SDS011;15240;50.812;4.792;2023-03-14T08:24:30;6.53;;;3.87;;
27893;SDS011;15240;50.812;4.792;2023-03-14T08:26:56;5.97;;;3.43;;
27893;SDS011;15240;50.812;4.792;2023-03-14T08:29:22;6.63;;;3.90;;
27893;SDS011;15240;50.812;4.792;2023-03-14T08:31:48;5.97;;;3.20;;
27893;SDS011;15240;50.812;4.792;2023-03-14T08:34:15;11.50;;;3.20;;
27893;SDS011;15240;50.812;4.792;2023-03-14T08:36:41;7.77;;;2.73;;
27893;SDS011;15240;50.812;4.792;2023-03-14T08:39:07;3.97;;;3.03;;
27893;SDS011;15240;50.812;4.792;2023-03-14T08:41:33;3.70;;;2.40;;
27893;SDS011;15240;50.812;4.792;2023-03-14T08:44:05;5.73;;;2.33;;
27893;SDS011;15240;50.812;4.792;2023-03-14T08:46:31;4.20;;;2.23;;
27893;SDS011;15240;50.812;4.792;2023-03-14T08:48:57;4.03;;;2.77;;
27893;SDS011;15240;50.812;4.792;2023-03-14T08:51:23;5.20;;;2.70;;
27893;SDS011;15240;50.812;4.792;2023-03-14T08:53:49;5.10;;;2.93;;
27893;SDS011;15240;50.812;4.792;2023-03-14T08:56:15;6.63;;;3.20;;
27893;SDS011;15240;50.812;4.792;2023-03-14T08:58:41;6.30;;;3.37;;
27893;SDS011;15240;50.812;4.792;2023-03-14T09:01:08;9.27;;;3.57;;
27893;SDS011;15240;50.812;4.792;2023-03-14T09:03:35;6.10;;;3.80;;
27893;SDS011;15240;50.812;4.792;2023-03-14T09:06:01;6.33;;;4.00;;
27893;SDS011;15240;50.812;4.792;2023-03-14T09:08:28;6.63;;;3.43;;
27893;SDS011;15240;50.812;4.792;2023-03-14T09:10:54;6.73;;;3.77;;
27893;SDS011;15240;50.812;4.792;2023-03-14T09:13:20;6.90;;;3.13;;
27893;SDS011;15240;50.812;4.792;2023-03-14T09:15:50;9.70;;;3.73;;
27893;SDS011;15240;50.812;4.792;2023-03-14T09:18:16;6.53;;;3.60;;
27893;SDS011;15240;50.812;4.792;2023-03-14T09:20:42;7.17;;;3.90;;
27893;SDS011;15240;50.812;4.792;2023-03-14T09:23:08;8.57;;;3.47;;
27893;SDS011;15240;50.812;4.792;2023-03-14T09:25:34;8.20;;;3.60;;
27893;SDS011;15240;50.812;4.792;2023-03-14T09:28:00;10.73;;;4.43;;
27893;SDS011;15240;50.812;4.792;2023-03-14T09:30:26;6.93;;;4.00;;
27893;SDS011;15240;50.812;4.792;2023-03-14T09:32:52;9.07;;;4.30;;
27893;SDS011;15240;50.812;4.792;2023-03-14T09:35:19;6.93;;;4.57;;
27893;SDS011;15240;50.812;4.792;2023-03-14T09:37:45;7.63;;;4.10;;
27893;SDS011;15240;50.812;4.792;2023-03-14T09:40:16;8.67;;;3.93;;
27893;SDS011;15240;50.812;4.792;2023-03-14T09:42:43;6.30;;;3.93;;
27893;SDS011;15240;50.812;4.792;2023-03-14T09:45:11;4.90;;;3.43;;
27893;SDS011;15240;50.812;4.792;2023-03-14T09:47:38;5.53;;;3.73;;
27893;SDS011;15240;50.812;4.792;2023-03-14T09:50:05;9.23;;;3.97;;
27893;SDS011;15240;50.812;4.792;2023-03-14T09:52:36;5.13;;;3.30;;
27893;SDS011;15240;50.812;4.792;2023-03-14T09:55:09;8.07;;;3.60;;
27893;SDS011;15240;50.812;4.792;2023-03-14T09:57:37;6.13;;;3.30;;
27893;SDS011;15240;50.812;4.792;2023-03-14T10:00:19;7.40;;;3.50;;
27893;SDS011;15240;50.812;4.792;2023-03-14T10:02:51;7.90;;;3.20;;
27893;SDS011;15240;50.812;4.792;2023-03-14T10:05:20;9.50;;;3.73;;
27893;SDS011;15240;50.812;4.792;2023-03-14T10:07:46;10.23;;;4.27;;
27893;SDS011;15240;50.812;4.792;2023-03-14T10:10:19;10.57;;;3.83;;
27893;SDS011;15240;50.812;4.792;2023-03-14T10:12:48;12.47;;;4.00;;
27893;SDS011;15240;50.812;4.792;2023-03-14T10:15:33;8.97;;;3.50;;
27893;SDS011;15240;50.812;4.792;2023-03-14T10:18:00;9.37;;;4.00;;
27893;SDS011;15240;50.812;4.792;2023-03-14T10:20:36;12.13;;;3.90;;
27893;SDS011;15240;50.812;4.792;2023-03-14T10:23:04;11.50;;;3.83;;
27893;SDS011;15240;50.812;4.792;2023-03-14T10:25:32;12.13;;;4.27;;
27893;SDS011;15240;50.812;4.792;2023-03-14T10:27:58;11.07;;;3.90;;
27893;SDS011;15240;50.812;4.792;2023-03-14T10:30:43;12.97;;;4.13;;
27893;SDS011;15240;50.812;4.792;2023-03-14T10:35:44;9.33;;;3.93;;
27893;SDS011;15240;50.812;4.792;2023-03-14T10:38:15;7.90;;;3.33;;
27893;SDS011;15240;50.812;4.792;2023-03-14T10:40:46;12.70;;;3.67;;
27893;SDS011;15240;50.812;4.792;2023-03-14T10:43:19;10.97;;;3.57;;
27893;SDS011;15240;50.812;4.792;2023-03-14T10:45:51;8.97;;;3.53;;
27893;SDS011;15240;50.812;4.792;2023-03-14T10:48:19;8.63;;;3.30;;
27893;SDS011;15240;50.812;4.792;2023-03-14T10:53:34;9.00;;;3.30;;
27893;SDS011;15240;50.812;4.792;2023-03-14T10:56:04;10.20;;;3.50;;
27893;SDS011;15240;50.812;4.792;2023-03-14T10:58:33;7.20;;;2.90;;
27893;SDS011;15240;50.812;4.792;2023-03-14T11:03:47;5.30;;;2.73;;
27893;SDS011;15240;50.812;4.792;2023-03-14T11:06:20;8.03;;;3.10;;
27893;SDS011;15240;50.812;4.792;2023-03-14T11:11:18;6.20;;;2.67;;
27893;SDS011;15240;50.812;4.792;2023-03-14T11:13:53;4.47;;;1.90;;
27893;SDS011;15240;50.812;4.792;2023-03-14T11:19:02;6.30;;;2.17;;
27893;SDS011;15240;50.812;4.792;2023-03-14T11:21:35;5.23;;;1.90;;
27893;SDS011;15240;50.812;4.792;2023-03-14T11:29:40;5.17;;;1.57;;
27893;SDS011;15240;50.812;4.792;2023-03-14T11:37:23;4.30;;;1.63;;
27893;SDS011;15240;50.812;4.792;2023-03-14T11:39:54;3.13;;;1.20;;
27893;SDS011;15240;50.812;4.792;2023-03-14T11:42:21;1.80;;;1.07;;
27893;SDS011;15240;50.812;4.792;2023-03-14T11:44:48;3.43;;;1.20;;
27893;SDS011;15240;50.812;4.792;2023-03-14T11:47:25;2.33;;;1.07;;
27893;SDS011;15240;50.812;4.792;2023-03-14T11:50:01;4.07;;;1.10;;
27893;SDS011;15240;50.812;4.792;2023-03-14T11:57:26;3.03;;;1.30;;
27893;SDS011;15240;50.812;4.792;2023-03-14T11:59:57;3.83;;;1.17;;
27893;SDS011;15240;50.812;4.792;2023-03-14T12:07:51;4.30;;;1.27;;
27893;SDS011;15240;50.812;4.792;2023-03-14T12:10:22;3.30;;;1.20;;
27893;SDS011;15240;50.812;4.792;2023-03-14T12:12:48;4.23;;;1.40;;
27893;SDS011;15240;50.812;4.792;2023-03-14T12:15:18;4.30;;;1.10;;
27893;SDS011;15240;50.812;4.792;2023-03-14T12:17:45;2.07;;;0.80;;
27893;SDS011;15240;50.812;4.792;2023-03-14T12:22:47;1.53;;;0.60;;
27893;SDS011;15240;50.812;4.792;2023-03-14T12:27:43;2.53;;;0.67;;
27893;SDS011;15240;50.812;4.792;2023-03-14T12:38:03;1.63;;;0.60;;
27893;SDS011;15240;50.812;4.792;2023-03-14T12:40:35;2.77;;;0.70;;
27893;SDS011;15240;50.812;4.792;2023-03-14T12:43:04;1.50;;;0.50;;
27893;SDS011;15240;50.812;4.792;2023-03-14T12:48:34;1.63;;;0.50;;
27893;SDS011;15240;50.812;4.792;2023-03-14T12:51:03;1.57;;;0.57;;
27893;SDS011;15240;50.812;4.792;2023-03-14T12:55:58;2.00;;;0.80;;
27893;SDS011;15240;50.812;4.792;2023-03-14T13:01:02;1.57;;;0.83;;
27893;SDS011;15240;50.812;4.792;2023-03-14T13:03:50;2.10;;;1.10;;
27893;SDS011;15240;50.812;4.792;2023-03-14T13:11:47;3.70;;;1.13;;
27893;SDS011;15240;50.812;4.792;2023-03-14T13:14:13;2.50;;;1.20;;
27893;SDS011;15240;50.812;4.792;2023-03-14T13:16:39;1.53;;;1.20;;
27893;SDS011;15240;50.812;4.792;2023-03-14T13:19:25;3.23;;;1.33;;
27893;SDS011;15240;50.812;4.792;2023-03-14T13:21:52;3.90;;;1.40;;
27893;SDS011;15240;50.812;4.792;2023-03-14T13:24:23;5.73;;;1.60;;
27893;SDS011;15240;50.812;4.792;2023-03-14T13:26:51;3.77;;;1.70;;
27893;SDS011;15240;50.812;4.792;2023-03-14T13:31:46;5.87;;;2.17;;
27893;SDS011;15240;50.812;4.792;2023-03-14T13:34:13;6.30;;;2.37;;
27893;SDS011;15240;50.812;4.792;2023-03-14T13:36:39;5.03;;;2.50;;
27893;SDS011;15240;50.812;4.792;2023-03-14T13:39:19;4.47;;;1.93;;
27893;SDS011;15240;50.812;4.792;2023-03-14T13:41:47;4.13;;;2.10;;
27893;SDS011;15240;50.812;4.792;2023-03-14T13:44:15;3.43;;;2.30;;
27893;SDS011;15240;50.812;4.792;2023-03-14T13:46:42;3.50;;;2.40;;
27893;SDS011;15240;50.812;4.792;2023-03-14T13:49:13;5.00;;;2.37;;
27893;SDS011;15240;50.812;4.792;2023-03-14T13:51:43;4.57;;;2.50;;
27893;SDS011;15240;50.812;4.792;2023-03-14T13:54:16;4.20;;;2.50;;
27893;SDS011;15240;50.812;4.792;2023-03-14T13:56:43;11.77;;;2.67;;
27893;SDS011;15240;50.812;4.792;2023-03-14T13:59:22;8.77;;;1.90;;
27893;SDS011;15240;50.812;4.792;2023-03-14T14:01:48;5.37;;;1.30;;
27893;SDS011;15240;50.812;4.792;2023-03-14T14:04:15;9.07;;;2.10;;
27893;SDS011;15240;50.812;4.792;2023-03-14T14:06:48;9.33;;;1.73;;
27893;SDS011;15240;50.812;4.792;2023-03-14T14:09:16;10.47;;;2.23;;
27893;SDS011;15240;50.812;4.792;2023-03-14T14:14:19;12.57;;;2.23;;
27893;SDS011;15240;50.812;4.792;2023-03-14T14:16:47;17.97;;;2.60;;
27893;SDS011;15240;50.812;4.792;2023-03-14T14:19:13;11.63;;;2.73;;
27893;SDS011;15240;50.812;4.792;2023-03-14T14:21:40;19.63;;;4.03;;
27893;SDS011;15240;50.812;4.792;2023-03-14T14:24:09;21.67;;;3.90;;
27893;SDS011;15240;50.812;4.792;2023-03-14T14:26:40;24.03;;;3.87;;
27893;SDS011;15240;50.812;4.792;2023-03-14T14:29:06;16.03;;;3.53;;
27893;SDS011;15240;50.812;4.792;2023-03-14T14:31:32;17.77;;;3.67;;
27893;SDS011;15240;50.812;4.792;2023-03-14T14:36:42;20.30;;;3.00;;
27893;SDS011;15240;50.812;4.792;2023-03-14T14:39:24;14.10;;;2.87;;
27893;SDS011;15240;50.812;4.792;2023-03-14T14:41:51;14.10;;;3.10;;
27893;SDS011;15240;50.812;4.792;2023-03-14T14:44:27;18.07;;;2.50;;
27893;SDS011;15240;50.812;4.792;2023-03-14T14:46:55;13.70;;;2.90;;
27893;SDS011;15240;50.812;4.792;2023-03-14T14:49:22;14.57;;;3.10;;
27893;SDS011;15240;50.812;4.792;2023-03-14T14:52:00;15.93;;;3.27;;
27893;SDS011;15240;50.812;4.792;2023-03-14T14:54:48;13.17;;;3.10;;
27893;SDS011;15240;50.812;4.792;2023-03-14T14:57:24;13.93;;;3.10;;
27893;SDS011;15240;50.812;4.792;2023-03-14T14:59:54;13.50;;;2.77;;
27893;SDS011;15240;50.812;4.792;2023-03-14T15:02:32;11.03;;;2.67;;
27893;SDS011;15240;50.812;4.792;2023-03-14T15:05:01;15.23;;;2.97;;
27893;SDS011;15240;50.812;4.792;2023-03-14T15:07:27;7.73;;;2.83;;
27893;SDS011;15240;50.812;4.792;2023-03-14T15:09:53;10.83;;;3.13;;
27893;SDS011;15240;50.812;4.792;2023-03-14T15:12:19;13.17;;;3.03;;
27893;SDS011;15240;50.812;4.792;2023-03-14T15:14:46;13.50;;;4.23;;
27893;SDS011;15240;50.812;4.792;2023-03-14T15:17:12;10.70;;;2.90;;
27893;SDS011;15240;50.812;4.792;2023-03-14T15:19:39;8.60;;;2.00;;
27893;SDS011;15240;50.812;4.792;2023-03-14T15:22:07;10.30;;;1.87;;
27893;SDS011;15240;50.812;4.792;2023-03-14T15:24:35;10.63;;;1.93;;
27893;SDS011;15240;50.812;4.792;2023-03-14T15:27:01;16.47;;;1.90;;
27893;SDS011;15240;50.812;4.792;2023-03-14T15:29:28;8.63;;;1.50;;
27893;SDS011;15240;50.812;4.792;2023-03-14T15:31:54;5.80;;;1.70;;
27893;SDS011;15240;50.812;4.792;2023-03-14T15:34:20;5.73;;;1.77;;
27893;SDS011;15240;50.812;4.792;2023-03-14T15:36:46;5.83;;;1.80;;
27893;SDS011;15240;50.812;4.792;2023-03-14T15:39:12;8.63;;;1.47;;
27893;SDS011;15240;50.812;4.792;2023-03-14T15:41:38;5.73;;;1.40;;
27893;SDS011;15240;50.812;4.792;2023-03-14T15:44:04;11.23;;;1.70;;
27893;SDS011;15240;50.812;4.792;2023-03-14T15:46:30;8.97;;;3.03;;
27893;SDS011;15240;50.812;4.792;2023-03-14T15:48:56;7.77;;;1.90;;
27893;SDS011;15240;50.812;4.792;2023-03-14T15:51:22;8.60;;;1.40;;
27893;SDS011;15240;50.812;4.792;2023-03-14T15:53:48;11.03;;;1.80;;
27893;SDS011;15240;50.812;4.792;2023-03-14T15:56:15;8.93;;;1.97;;
27893;SDS011;15240;50.812;4.792;2023-03-14T15:58:41;10.60;;;1.70;;
27893;SDS011;15240;50.812;4.792;2023-03-14T16:01:11;6.07;;;1.70;;
27893;SDS011;15240;50.812;4.792;2023-03-14T16:03:37;9.83;;;2.40;;
27893;SDS011;15240;50.812;4.792;2023-03-14T16:06:03;8.90;;;2.10;;